sensor_id;sensor_type;location;lat;lon;timestamp;P1;durP1;ratioP1;P2;durP2;ratioP2
7460;SDS011;6757;52.258;12.840;2022-08-04T00:00:53;7.03;;;3.00;;
7460;SDS011;6757;52.258;12.840;2022-08-04T00:03:31;5.93;;;3.00;;
7460;SDS011;6757;52.258;12.840;2022-08-04T00:06:07;6.53;;;3.10;;
7460;SDS011;6757;52.258;12.840;2022-08-04T00:08:44;6.82;;;3.20;;
7460;SDS011;6757;52.258;12.840;2022-08-04T00:11:19;4.45;;;2.67;;
7460;SDS011;6757;52.258;12.840;2022-08-04T00:13:49;7.20;;;3.30;;
7460;SDS011;6757;52.258;12.840;2022-08-04T00:16:20;6.25;;;2.70;;
7460;SDS011;6757;52.258;12.840;2022-08-04T00:18:49;6.28;;;2.97;;
7460;SDS011;6757;52.258;12.840;2022-08-04T00:21:23;6.22;;;3.38;;
7460;SDS011;6757;52.258;12.840;2022-08-04T00:23:51;6.20;;;2.90;;
7460;SDS011;6757;52.258;12.840;2022-08-04T00:26:21;7.25;;;3.33;;
7460;SDS011;6757;52.258;12.840;2022-08-04T00:28:48;7.43;;;3.20;;
7460;SDS011;6757;52.258;12.840;2022-08-04T00:31:16;6.35;;;3.17;;
7460;SDS011;6757;52.258;12.840;2022-08-04T00:33:44;5.00;;;2.67;;
7460;SDS011;6757;52.258;12.840;2022-08-04T00:36:11;6.03;;;3.35;;
7460;SDS011;6757;52.258;12.840;2022-08-04T00:38:39;7.25;;;3.47;;
7460;SDS011;6757;52.258;12.840;2022-08-04T00:41:08;7.90;;;3.35;;
7460;SDS011;6757;52.258;12.840;2022-08-04T00:44:08;6.93;;;3.20;;
7460;SDS011;6757;52.258;12.840;2022-08-04T00:46:50;5.53;;;3.05;;
7460;SDS011;6757;52.258;12.840;2022-08-04T00:52:47;5.80;;;3.10;;
7460;SDS011;6757;52.258;12.840;2022-08-04T00:55:32;6.93;;;3.17;;
7460;SDS011;6757;52.258;12.840;2022-08-04T00:58:26;6.25;;;3.03;;
7460;SDS011;6757;52.258;12.840;2022-08-04T01:01:10;6.72;;;3.15;;
7460;SDS011;6757;52.258;12.840;2022-08-04T01:03:49;7.80;;;3.20;;
7460;SDS011;6757;52.258;12.840;2022-08-04T01:06:28;9.27;;;3.22;;
7460;SDS011;6757;52.258;12.840;2022-08-04T01:09:07;5.47;;;2.83;;
7460;SDS011;6757;52.258;12.840;2022-08-04T01:11:56;6.78;;;3.28;;
7460;SDS011;6757;52.258;12.840;2022-08-04T01:14:52;6.30;;;3.08;;
7460;SDS011;6757;52.258;12.840;2022-08-04T01:17:36;8.80;;;3.45;;
7460;SDS011;6757;52.258;12.840;2022-08-04T01:20:14;7.68;;;3.47;;
7460;SDS011;6757;52.258;12.840;2022-08-04T01:23:00;5.53;;;2.95;;
7460;SDS011;6757;52.258;12.840;2022-08-04T01:26:01;7.95;;;3.60;;
7460;SDS011;6757;52.258;12.840;2022-08-04T01:29:12;7.93;;;3.30;;
7460;SDS011;6757;52.258;12.840;2022-08-04T01:32:00;6.00;;;3.28;;
7460;SDS011;6757;52.258;12.840;2022-08-04T01:34:34;7.47;;;3.15;;
7460;SDS011;6757;52.258;12.840;2022-08-04T01:37:06;6.53;;;2.95;;
7460;SDS011;6757;52.258;12.840;2022-08-04T01:39:40;6.60;;;3.20;;
7460;SDS011;6757;52.258;12.840;2022-08-04T01:42:17;6.05;;;3.22;;
7460;SDS011;6757;52.258;12.840;2022-08-04T01:44:48;7.93;;;3.45;;
7460;SDS011;6757;52.258;12.840;2022-08-04T01:47:16;7.55;;;3.20;;
7460;SDS011;6757;52.258;12.840;2022-08-04T01:49:48;6.97;;;3.13;;
7460;SDS011;6757;52.258;12.840;2022-08-04T01:52:17;6.05;;;3.15;;
7460;SDS011;6757;52.258;12.840;2022-08-04T01:54:45;8.07;;;3.40;;
7460;SDS011;6757;52.258;12.840;2022-08-04T01:57:13;6.72;;;3.42;;
7460;SDS011;6757;52.258;12.840;2022-08-04T01:59:44;6.80;;;3.20;;
7460;SDS011;6757;52.258;12.840;2022-08-04T02:02:17;7.15;;;3.03;;
7460;SDS011;6757;52.258;12.840;2022-08-04T02:04:47;6.20;;;3.20;;
7460;SDS011;6757;52.258;12.840;2022-08-04T02:07:20;7.22;;;3.50;;
7460;SDS011;6757;52.258;12.840;2022-08-04T02:10:03;7.47;;;3.15;;
7460;SDS011;6757;52.258;12.840;2022-08-04T02:12:36;7.15;;;3.10;;
7460;SDS011;6757;52.258;12.840;2022-08-04T02:15:22;7.28;;;3.15;;
7460;SDS011;6757;52.258;12.840;2022-08-04T02:18:03;6.53;;;3.00;;
7460;SDS011;6757;52.258;12.840;2022-08-04T02:20:37;6.70;;;3.40;;
7460;SDS011;6757;52.258;12.840;2022-08-04T02:23:13;6.05;;;3.30;;
7460;SDS011;6757;52.258;12.840;2022-08-04T02:25:43;7.53;;;3.35;;
7460;SDS011;6757;52.258;12.840;2022-08-04T02:28:25;8.63;;;3.10;;
7460;SDS011;6757;52.258;12.840;2022-08-04T02:31:07;6.88;;;3.22;;
7460;SDS011;6757;52.258;12.840;2022-08-04T02:33:44;6.32;;;3.20;;
7460;SDS011;6757;52.258;12.840;2022-08-04T02:36:19;7.60;;;3.42;;
7460;SDS011;6757;52.258;12.840;2022-08-04T02:38:55;6.13;;;3.15;;
7460;SDS011;6757;52.258;12.840;2022-08-04T02:41:26;7.82;;;3.53;;
7460;SDS011;6757;52.258;12.840;2022-08-04T02:43:55;7.00;;;3.42;;
7460;SDS011;6757;52.258;12.840;2022-08-04T02:46:26;6.60;;;3.25;;
7460;SDS011;6757;52.258;12.840;2022-08-04T02:48:54;8.13;;;3.60;;
7460;SDS011;6757;52.258;12.840;2022-08-04T02:51:23;8.88;;;3.60;;
7460;SDS011;6757;52.258;12.840;2022-08-04T02:53:54;7.18;;;3.28;;
7460;SDS011;6757;52.258;12.840;2022-08-04T02:56:23;5.90;;;3.28;;
7460;SDS011;6757;52.258;12.840;2022-08-04T02:58:56;7.45;;;3.72;;
7460;SDS011;6757;52.258;12.840;2022-08-04T03:01:26;7.72;;;3.40;;
7460;SDS011;6757;52.258;12.840;2022-08-04T03:04:03;7.95;;;3.63;;
7460;SDS011;6757;52.258;12.840;2022-08-04T03:13:26;7.50;;;3.53;;
7460;SDS011;6757;52.258;12.840;2022-08-04T03:16:50;8.27;;;3.38;;
7460;SDS011;6757;52.258;12.840;2022-08-04T03:23:11;6.70;;;3.17;;
7460;SDS011;6757;52.258;12.840;2022-08-04T03:26:27;7.20;;;3.13;;
7460;SDS011;6757;52.258;12.840;2022-08-04T03:29:22;8.25;;;3.50;;
7460;SDS011;6757;52.258;12.840;2022-08-04T03:45:21;8.30;;;3.75;;
7460;SDS011;6757;52.258;12.840;2022-08-04T03:48:57;9.57;;;3.70;;
7460;SDS011;6757;52.258;12.840;2022-08-04T03:52:06;7.78;;;3.15;;
7460;SDS011;6757;52.258;12.840;2022-08-04T03:55:01;8.52;;;3.63;;
7460;SDS011;6757;52.258;12.840;2022-08-04T03:58:00;9.82;;;4.20;;
7460;SDS011;6757;52.258;12.840;2022-08-04T04:01:11;10.23;;;4.53;;
7460;SDS011;6757;52.258;12.840;2022-08-04T04:04:17;9.65;;;4.05;;
7460;SDS011;6757;52.258;12.840;2022-08-04T04:07:40;9.27;;;3.70;;
7460;SDS011;6757;52.258;12.840;2022-08-04T04:10:34;11.65;;;4.50;;
7460;SDS011;6757;52.258;12.840;2022-08-04T04:13:27;11.77;;;4.80;;
7460;SDS011;6757;52.258;12.840;2022-08-04T04:16:19;9.32;;;4.20;;
7460;SDS011;6757;52.258;12.840;2022-08-04T04:22:15;9.20;;;4.10;;
7460;SDS011;6757;52.258;12.840;2022-08-04T04:25:02;7.13;;;3.67;;
7460;SDS011;6757;52.258;12.840;2022-08-04T04:27:49;9.20;;;4.50;;
7460;SDS011;6757;52.258;12.840;2022-08-04T04:30:49;8.55;;;4.10;;
7460;SDS011;6757;52.258;12.840;2022-08-04T04:33:35;8.80;;;3.95;;
7460;SDS011;6757;52.258;12.840;2022-08-04T04:36:11;8.80;;;4.20;;
7460;SDS011;6757;52.258;12.840;2022-08-04T04:38:56;9.20;;;4.10;;
7460;SDS011;6757;52.258;12.840;2022-08-04T04:44:49;8.35;;;3.88;;
7460;SDS011;6757;52.258;12.840;2022-08-04T04:47:35;9.10;;;3.92;;
7460;SDS011;6757;52.258;12.840;2022-08-04T04:50:13;10.60;;;4.50;;
7460;SDS011;6757;52.258;12.840;2022-08-04T04:52:48;9.30;;;4.05;;
7460;SDS011;6757;52.258;12.840;2022-08-04T04:55:23;8.05;;;3.80;;
7460;SDS011;6757;52.258;12.840;2022-08-04T04:57:57;8.63;;;4.18;;
7460;SDS011;6757;52.258;12.840;2022-08-04T05:00:28;8.93;;;4.22;;
7460;SDS011;6757;52.258;12.840;2022-08-04T05:03:22;7.72;;;3.75;;
7460;SDS011;6757;52.258;12.840;2022-08-04T05:06:34;8.82;;;3.70;;
7460;SDS011;6757;52.258;12.840;2022-08-04T05:09:20;7.40;;;3.60;;
7460;SDS011;6757;52.258;12.840;2022-08-04T05:12:00;8.88;;;4.03;;
7460;SDS011;6757;52.258;12.840;2022-08-04T05:14:50;7.88;;;3.78;;
7460;SDS011;6757;52.258;12.840;2022-08-04T05:17:20;9.73;;;4.10;;
7460;SDS011;6757;52.258;12.840;2022-08-04T05:19:56;8.55;;;3.90;;
7460;SDS011;6757;52.258;12.840;2022-08-04T05:22:29;10.15;;;4.03;;
7460;SDS011;6757;52.258;12.840;2022-08-04T05:25:03;7.57;;;3.50;;
7460;SDS011;6757;52.258;12.840;2022-08-04T05:27:36;7.72;;;3.50;;
7460;SDS011;6757;52.258;12.840;2022-08-04T05:30:08;7.10;;;3.40;;
7460;SDS011;6757;52.258;12.840;2022-08-04T05:32:39;12.73;;;4.00;;
7460;SDS011;6757;52.258;12.840;2022-08-04T05:35:14;9.27;;;3.60;;
7460;SDS011;6757;52.258;12.840;2022-08-04T05:37:47;7.20;;;3.08;;
7460;SDS011;6757;52.258;12.840;2022-08-04T05:40:17;6.40;;;3.22;;
7460;SDS011;6757;52.258;12.840;2022-08-04T05:42:45;9.13;;;3.60;;
7460;SDS011;6757;52.258;12.840;2022-08-04T05:45:13;8.02;;;3.00;;
7460;SDS011;6757;52.258;12.840;2022-08-04T05:47:41;7.13;;;3.40;;
7460;SDS011;6757;52.258;12.840;2022-08-04T05:50:09;6.55;;;3.30;;
7460;SDS011;6757;52.258;12.840;2022-08-04T05:52:36;7.75;;;3.63;;
7460;SDS011;6757;52.258;12.840;2022-08-04T05:55:05;7.97;;;3.15;;
7460;SDS011;6757;52.258;12.840;2022-08-04T05:57:37;6.90;;;2.97;;
7460;SDS011;6757;52.258;12.840;2022-08-04T06:00:06;5.57;;;2.83;;
7460;SDS011;6757;52.258;12.840;2022-08-04T06:02:34;6.13;;;2.85;;
7460;SDS011;6757;52.258;12.840;2022-08-04T06:05:04;6.75;;;3.08;;
7460;SDS011;6757;52.258;12.840;2022-08-04T06:07:32;7.05;;;3.22;;
7460;SDS011;6757;52.258;12.840;2022-08-04T06:09:59;5.53;;;3.08;;
7460;SDS011;6757;52.258;12.840;2022-08-04T06:12:29;5.82;;;2.90;;
7460;SDS011;6757;52.258;12.840;2022-08-04T06:15:04;9.35;;;3.60;;
7460;SDS011;6757;52.258;12.840;2022-08-04T06:17:35;6.35;;;2.83;;
7460;SDS011;6757;52.258;12.840;2022-08-04T06:20:06;5.15;;;3.10;;
7460;SDS011;6757;52.258;12.840;2022-08-04T06:22:36;6.57;;;3.10;;
7460;SDS011;6757;52.258;12.840;2022-08-04T06:25:07;5.70;;;3.10;;
7460;SDS011;6757;52.258;12.840;2022-08-04T06:27:36;8.05;;;3.72;;
7460;SDS011;6757;52.258;12.840;2022-08-04T06:30:07;9.25;;;4.10;;
7460;SDS011;6757;52.258;12.840;2022-08-04T06:32:38;7.68;;;3.60;;
7460;SDS011;6757;52.258;12.840;2022-08-04T06:35:14;7.03;;;3.47;;
7460;SDS011;6757;52.258;12.840;2022-08-04T06:37:42;6.28;;;3.42;;
7460;SDS011;6757;52.258;12.840;2022-08-04T06:40:11;8.63;;;3.70;;
7460;SDS011;6757;52.258;12.840;2022-08-04T06:42:40;8.77;;;3.90;;
7460;SDS011;6757;52.258;12.840;2022-08-04T06:45:10;8.63;;;3.85;;
7460;SDS011;6757;52.258;12.840;2022-08-04T06:47:38;7.18;;;3.42;;
7460;SDS011;6757;52.258;12.840;2022-08-04T06:50:07;9.05;;;3.70;;
7460;SDS011;6757;52.258;12.840;2022-08-04T06:52:35;6.95;;;3.80;;
7460;SDS011;6757;52.258;12.840;2022-08-04T06:55:04;8.38;;;3.70;;
7460;SDS011;6757;52.258;12.840;2022-08-04T06:57:33;7.63;;;3.78;;
7460;SDS011;6757;52.258;12.840;2022-08-04T07:00:03;6.90;;;3.70;;
7460;SDS011;6757;52.258;12.840;2022-08-04T07:02:38;8.45;;;4.00;;
7460;SDS011;6757;52.258;12.840;2022-08-04T07:05:07;8.35;;;3.58;;
7460;SDS011;6757;52.258;12.840;2022-08-04T07:07:36;9.13;;;3.78;;
7460;SDS011;6757;52.258;12.840;2022-08-04T07:10:05;8.80;;;4.60;;
7460;SDS011;6757;52.258;12.840;2022-08-04T07:12:32;8.23;;;3.90;;
7460;SDS011;6757;52.258;12.840;2022-08-04T07:15:00;7.07;;;3.58;;
7460;SDS011;6757;52.258;12.840;2022-08-04T07:17:29;6.90;;;3.65;;
7460;SDS011;6757;52.258;12.840;2022-08-04T07:19:58;8.40;;;3.60;;
7460;SDS011;6757;52.258;12.840;2022-08-04T07:22:27;8.10;;;3.70;;
7460;SDS011;6757;52.258;12.840;2022-08-04T07:24:55;8.27;;;3.63;;
7460;SDS011;6757;52.258;12.840;2022-08-04T07:27:23;7.82;;;3.80;;
7460;SDS011;6757;52.258;12.840;2022-08-04T07:29:51;7.18;;;3.40;;
7460;SDS011;6757;52.258;12.840;2022-08-04T07:32:19;7.57;;;4.07;;
7460;SDS011;6757;52.258;12.840;2022-08-04T07:34:47;7.40;;;3.72;;
7460;SDS011;6757;52.258;12.840;2022-08-04T07:37:16;6.10;;;3.30;;
7460;SDS011;6757;52.258;12.840;2022-08-04T07:39:43;7.78;;;3.85;;
7460;SDS011;6757;52.258;12.840;2022-08-04T07:42:11;8.75;;;3.80;;
7460;SDS011;6757;52.258;12.840;2022-08-04T07:44:38;6.82;;;3.40;;
7460;SDS011;6757;52.258;12.840;2022-08-04T07:47:06;6.07;;;3.55;;
7460;SDS011;6757;52.258;12.840;2022-08-04T07:49:33;9.30;;;3.90;;
7460;SDS011;6757;52.258;12.840;2022-08-04T07:52:01;7.15;;;3.53;;
7460;SDS011;6757;52.258;12.840;2022-08-04T07:54:32;6.78;;;3.50;;
7460;SDS011;6757;52.258;12.840;2022-08-04T07:57:00;8.43;;;3.67;;
7460;SDS011;6757;52.258;12.840;2022-08-04T07:59:28;6.68;;;3.60;;
7460;SDS011;6757;52.258;12.840;2022-08-04T08:01:56;6.45;;;3.50;;
7460;SDS011;6757;52.258;12.840;2022-08-04T08:04:25;7.43;;;3.40;;
7460;SDS011;6757;52.258;12.840;2022-08-04T08:06:53;6.47;;;3.20;;
7460;SDS011;6757;52.258;12.840;2022-08-04T08:09:20;7.57;;;3.65;;
7460;SDS011;6757;52.258;12.840;2022-08-04T08:11:50;5.18;;;3.00;;
7460;SDS011;6757;52.258;12.840;2022-08-04T08:14:18;7.55;;;3.63;;
7460;SDS011;6757;52.258;12.840;2022-08-04T08:16:46;6.18;;;3.30;;
7460;SDS011;6757;52.258;12.840;2022-08-04T08:19:13;7.25;;;3.30;;
7460;SDS011;6757;52.258;12.840;2022-08-04T08:21:44;5.95;;;3.20;;
7460;SDS011;6757;52.258;12.840;2022-08-04T08:24:13;5.63;;;3.20;;
7460;SDS011;6757;52.258;12.840;2022-08-04T08:26:40;8.13;;;3.40;;
7460;SDS011;6757;52.258;12.840;2022-08-04T08:29:08;5.75;;;3.30;;
7460;SDS011;6757;52.258;12.840;2022-08-04T08:31:36;7.13;;;3.38;;
7460;SDS011;6757;52.258;12.840;2022-08-04T08:34:03;10.00;;;3.65;;
7460;SDS011;6757;52.258;12.840;2022-08-04T08:36:33;5.68;;;3.25;;
7460;SDS011;6757;52.258;12.840;2022-08-04T08:39:05;6.30;;;3.35;;
7460;SDS011;6757;52.258;12.840;2022-08-04T08:41:42;7.78;;;3.30;;
7460;SDS011;6757;52.258;12.840;2022-08-04T08:48:02;6.00;;;3.13;;
7460;SDS011;6757;52.258;12.840;2022-08-04T08:50:51;6.07;;;2.88;;
7460;SDS011;6757;52.258;12.840;2022-08-04T08:54:07;4.07;;;2.75;;
7460;SDS011;6757;52.258;12.840;2022-08-04T08:57:15;6.03;;;2.97;;
7460;SDS011;6757;52.258;12.840;2022-08-04T09:00:00;6.85;;;3.35;;
7460;SDS011;6757;52.258;12.840;2022-08-04T09:08:44;5.70;;;3.03;;
7460;SDS011;6757;52.258;12.840;2022-08-04T09:11:27;4.97;;;3.00;;
7460;SDS011;6757;52.258;12.840;2022-08-04T09:16:35;8.30;;;3.20;;
7460;SDS011;6757;52.258;12.840;2022-08-04T09:19:11;4.82;;;3.03;;
7460;SDS011;6757;52.258;12.840;2022-08-04T09:21:46;5.40;;;3.00;;
7460;SDS011;6757;52.258;12.840;2022-08-04T09:24:24;4.78;;;2.80;;
7460;SDS011;6757;52.258;12.840;2022-08-04T09:27:02;6.05;;;2.92;;
7460;SDS011;6757;52.258;12.840;2022-08-04T09:29:39;5.18;;;3.00;;
7460;SDS011;6757;52.258;12.840;2022-08-04T09:32:16;5.53;;;3.28;;
7460;SDS011;6757;52.258;12.840;2022-08-04T09:34:56;5.72;;;2.80;;
7460;SDS011;6757;52.258;12.840;2022-08-04T09:37:41;5.25;;;2.85;;
7460;SDS011;6757;52.258;12.840;2022-08-04T09:40:16;3.65;;;2.60;;
7460;SDS011;6757;52.258;12.840;2022-08-04T09:45:26;5.15;;;2.90;;
7460;SDS011;6757;52.258;12.840;2022-08-04T09:48:01;4.93;;;2.30;;
7460;SDS011;6757;52.258;12.840;2022-08-04T09:50:36;5.60;;;3.17;;
7460;SDS011;6757;52.258;12.840;2022-08-04T09:53:10;7.22;;;3.05;;
7460;SDS011;6757;52.258;12.840;2022-08-04T09:55:57;4.18;;;2.80;;
7460;SDS011;6757;52.258;12.840;2022-08-04T09:58:38;4.63;;;2.85;;
7460;SDS011;6757;52.258;12.840;2022-08-04T10:01:16;7.20;;;3.10;;
7460;SDS011;6757;52.258;12.840;2022-08-04T10:06:24;5.65;;;3.30;;
7460;SDS011;6757;52.258;12.840;2022-08-04T10:09:13;5.88;;;3.13;;
7460;SDS011;6757;52.258;12.840;2022-08-04T10:12:02;4.85;;;3.03;;
7460;SDS011;6757;52.258;12.840;2022-08-04T10:14:46;4.47;;;2.97;;
7460;SDS011;6757;52.258;12.840;2022-08-04T10:17:20;5.60;;;3.08;;
7460;SDS011;6757;52.258;12.840;2022-08-04T10:20:03;6.47;;;3.30;;
7460;SDS011;6757;52.258;12.840;2022-08-04T10:22:40;6.25;;;3.20;;
7460;SDS011;6757;52.258;12.840;2022-08-04T10:25:23;5.60;;;3.00;;
7460;SDS011;6757;52.258;12.840;2022-08-04T10:28:04;5.57;;;3.30;;
7460;SDS011;6757;52.258;12.840;2022-08-04T10:30:38;5.95;;;3.40;;
7460;SDS011;6757;52.258;12.840;2022-08-04T10:33:10;4.95;;;2.95;;
7460;SDS011;6757;52.258;12.840;2022-08-04T10:35:54;5.60;;;3.00;;
7460;SDS011;6757;52.258;12.840;2022-08-04T10:38:30;5.95;;;3.05;;
7460;SDS011;6757;52.258;12.840;2022-08-04T10:41:05;5.85;;;3.08;;
7460;SDS011;6757;52.258;12.840;2022-08-04T10:43:40;5.55;;;3.20;;
7460;SDS011;6757;52.258;12.840;2022-08-04T10:46:15;5.45;;;2.92;;
7460;SDS011;6757;52.258;12.840;2022-08-04T10:48:46;6.60;;;3.22;;
7460;SDS011;6757;52.258;12.840;2022-08-04T10:51:20;7.40;;;3.22;;
7460;SDS011;6757;52.258;12.840;2022-08-04T10:53:58;6.95;;;3.85;;
7460;SDS011;6757;52.258;12.840;2022-08-04T10:56:31;7.05;;;3.28;;
7460;SDS011;6757;52.258;12.840;2022-08-04T10:59:02;6.00;;;3.20;;
7460;SDS011;6757;52.258;12.840;2022-08-04T11:01:34;5.55;;;2.92;;
7460;SDS011;6757;52.258;12.840;2022-08-04T11:04:07;6.88;;;3.45;;
7460;SDS011;6757;52.258;12.840;2022-08-04T11:06:42;7.72;;;3.88;;
7460;SDS011;6757;52.258;12.840;2022-08-04T11:09:12;7.93;;;3.42;;
7460;SDS011;6757;52.258;12.840;2022-08-04T11:11:40;5.63;;;3.05;;
7460;SDS011;6757;52.258;12.840;2022-08-04T11:14:13;6.65;;;3.10;;
7460;SDS011;6757;52.258;12.840;2022-08-04T11:16:43;5.38;;;3.17;;
7460;SDS011;6757;52.258;12.840;2022-08-04T11:19:18;5.65;;;3.25;;
7460;SDS011;6757;52.258;12.840;2022-08-04T11:21:56;6.13;;;2.97;;
7460;SDS011;6757;52.258;12.840;2022-08-04T11:24:34;4.80;;;2.80;;
7460;SDS011;6757;52.258;12.840;2022-08-04T11:27:11;7.30;;;3.28;;
7460;SDS011;6757;52.258;12.840;2022-08-04T11:29:45;4.75;;;2.92;;
7460;SDS011;6757;52.258;12.840;2022-08-04T11:32:28;6.05;;;2.97;;
7460;SDS011;6757;52.258;12.840;2022-08-04T11:35:04;4.65;;;2.67;;
7460;SDS011;6757;52.258;12.840;2022-08-04T11:37:40;5.43;;;3.20;;
7460;SDS011;6757;52.258;12.840;2022-08-04T11:40:14;3.95;;;2.42;;
7460;SDS011;6757;52.258;12.840;2022-08-04T11:42:51;4.88;;;3.03;;
7460;SDS011;6757;52.258;12.840;2022-08-04T11:45:23;4.97;;;3.05;;
7460;SDS011;6757;52.258;12.840;2022-08-04T11:50:31;5.93;;;3.40;;
7460;SDS011;6757;52.258;12.840;2022-08-04T11:53:03;4.32;;;3.20;;
7460;SDS011;6757;52.258;12.840;2022-08-04T11:55:33;6.10;;;3.17;;
7460;SDS011;6757;52.258;12.840;2022-08-04T11:58:03;4.63;;;3.40;;
7460;SDS011;6757;52.258;12.840;2022-08-04T12:00:31;6.20;;;3.30;;
7460;SDS011;6757;52.258;12.840;2022-08-04T12:03:06;7.43;;;3.58;;
7460;SDS011;6757;52.258;12.840;2022-08-04T12:05:50;5.68;;;3.13;;
7460;SDS011;6757;52.258;12.840;2022-08-04T12:08:32;5.70;;;3.15;;
7460;SDS011;6757;52.258;12.840;2022-08-04T12:11:23;4.78;;;3.35;;
7460;SDS011;6757;52.258;12.840;2022-08-04T12:14:08;5.57;;;3.30;;
7460;SDS011;6757;52.258;12.840;2022-08-04T12:16:53;5.93;;;3.10;;
7460;SDS011;6757;52.258;12.840;2022-08-04T12:21:59;6.40;;;3.15;;
7460;SDS011;6757;52.258;12.840;2022-08-04T12:24:40;4.68;;;2.90;;
7460;SDS011;6757;52.258;12.840;2022-08-04T12:27:20;6.47;;;3.50;;
7460;SDS011;6757;52.258;12.840;2022-08-04T12:29:53;6.13;;;3.25;;
7460;SDS011;6757;52.258;12.840;2022-08-04T12:32:23;5.47;;;3.20;;
7460;SDS011;6757;52.258;12.840;2022-08-04T12:35:02;9.15;;;3.55;;
7460;SDS011;6757;52.258;12.840;2022-08-04T12:37:43;6.22;;;3.17;;
7460;SDS011;6757;52.258;12.840;2022-08-04T12:40:22;5.22;;;2.97;;
7460;SDS011;6757;52.258;12.840;2022-08-04T12:42:54;4.82;;;3.28;;
7460;SDS011;6757;52.258;12.840;2022-08-04T12:45:27;5.18;;;3.25;;
7460;SDS011;6757;52.258;12.840;2022-08-04T12:47:56;6.57;;;3.60;;
7460;SDS011;6757;52.258;12.840;2022-08-04T12:50:24;4.90;;;3.05;;
7460;SDS011;6757;52.258;12.840;2022-08-04T12:52:53;4.10;;;3.00;;
7460;SDS011;6757;52.258;12.840;2022-08-04T12:55:23;4.93;;;3.35;;
7460;SDS011;6757;52.258;12.840;2022-08-04T12:57:55;5.60;;;3.20;;
7460;SDS011;6757;52.258;12.840;2022-08-04T13:00:23;4.97;;;3.28;;
7460;SDS011;6757;52.258;12.840;2022-08-04T13:02:53;6.88;;;3.47;;
7460;SDS011;6757;52.258;12.840;2022-08-04T13:05:31;6.82;;;3.78;;
7460;SDS011;6757;52.258;12.840;2022-08-04T13:08:00;4.70;;;2.97;;
7460;SDS011;6757;52.258;12.840;2022-08-04T13:12:59;5.75;;;2.83;;
7460;SDS011;6757;52.258;12.840;2022-08-04T13:15:27;5.50;;;3.70;;
7460;SDS011;6757;52.258;12.840;2022-08-04T13:17:58;4.80;;;3.35;;
7460;SDS011;6757;52.258;12.840;2022-08-04T13:20:27;6.43;;;3.50;;
7460;SDS011;6757;52.258;12.840;2022-08-04T13:23:03;5.07;;;3.67;;
7460;SDS011;6757;52.258;12.840;2022-08-04T13:25:33;4.78;;;3.45;;
7460;SDS011;6757;52.258;12.840;2022-08-04T13:28:05;4.47;;;3.03;;
7460;SDS011;6757;52.258;12.840;2022-08-04T13:30:39;4.45;;;3.20;;
7460;SDS011;6757;52.258;12.840;2022-08-04T13:33:10;5.93;;;3.47;;
7460;SDS011;6757;52.258;12.840;2022-08-04T13:35:41;5.97;;;3.53;;
7460;SDS011;6757;52.258;12.840;2022-08-04T13:38:10;4.53;;;3.15;;
7460;SDS011;6757;52.258;12.840;2022-08-04T13:40:38;4.25;;;3.10;;
7460;SDS011;6757;52.258;12.840;2022-08-04T13:43:09;4.13;;;2.97;;
7460;SDS011;6757;52.258;12.840;2022-08-04T13:45:49;4.30;;;3.17;;
7460;SDS011;6757;52.258;12.840;2022-08-04T13:48:24;5.38;;;3.30;;
7460;SDS011;6757;52.258;12.840;2022-08-04T13:50:56;6.00;;;3.63;;
7460;SDS011;6757;52.258;12.840;2022-08-04T13:53:29;5.00;;;3.03;;
7460;SDS011;6757;52.258;12.840;2022-08-04T13:55:58;3.38;;;3.08;;
7460;SDS011;6757;52.258;12.840;2022-08-04T13:58:29;4.03;;;3.05;;
7460;SDS011;6757;52.258;12.840;2022-08-04T14:00:59;4.18;;;3.25;;
7460;SDS011;6757;52.258;12.840;2022-08-04T14:03:32;4.90;;;3.28;;
7460;SDS011;6757;52.258;12.840;2022-08-04T14:06:07;5.55;;;3.17;;
7460;SDS011;6757;52.258;12.840;2022-08-04T14:08:42;5.57;;;3.22;;
7460;SDS011;6757;52.258;12.840;2022-08-04T14:11:14;5.28;;;3.83;;
7460;SDS011;6757;52.258;12.840;2022-08-04T14:13:45;6.53;;;3.35;;
7460;SDS011;6757;52.258;12.840;2022-08-04T14:16:12;5.00;;;3.63;;
7460;SDS011;6757;52.258;12.840;2022-08-04T14:18:40;4.32;;;3.50;;
7460;SDS011;6757;52.258;12.840;2022-08-04T14:21:08;5.30;;;3.22;;
7460;SDS011;6757;52.258;12.840;2022-08-04T14:23:37;4.45;;;3.50;;
7460;SDS011;6757;52.258;12.840;2022-08-04T14:26:14;5.07;;;3.35;;
7460;SDS011;6757;52.258;12.840;2022-08-04T14:28:46;4.13;;;3.08;;
7460;SDS011;6757;52.258;12.840;2022-08-04T14:31:14;6.63;;;3.30;;
7460;SDS011;6757;52.258;12.840;2022-08-04T14:33:44;4.53;;;3.45;;
7460;SDS011;6757;52.258;12.840;2022-08-04T14:36:13;3.85;;;3.15;;
7460;SDS011;6757;52.258;12.840;2022-08-04T14:38:42;4.78;;;3.20;;
7460;SDS011;6757;52.258;12.840;2022-08-04T14:41:12;5.80;;;3.58;;
7460;SDS011;6757;52.258;12.840;2022-08-04T14:43:42;4.95;;;3.58;;
7460;SDS011;6757;52.258;12.840;2022-08-04T14:46:11;4.60;;;3.47;;
7460;SDS011;6757;52.258;12.840;2022-08-04T14:48:40;5.35;;;3.20;;
7460;SDS011;6757;52.258;12.840;2022-08-04T14:51:33;5.70;;;3.80;;
7460;SDS011;6757;52.258;12.840;2022-08-04T14:54:07;3.88;;;3.03;;
7460;SDS011;6757;52.258;12.840;2022-08-04T14:56:35;4.20;;;3.13;;
7460;SDS011;6757;52.258;12.840;2022-08-04T14:59:06;4.35;;;3.53;;
7460;SDS011;6757;52.258;12.840;2022-08-04T15:01:36;4.35;;;3.30;;
7460;SDS011;6757;52.258;12.840;2022-08-04T15:04:04;5.22;;;3.60;;
7460;SDS011;6757;52.258;12.840;2022-08-04T15:06:33;4.38;;;3.30;;
7460;SDS011;6757;52.258;12.840;2022-08-04T15:09:01;4.20;;;2.80;;
7460;SDS011;6757;52.258;12.840;2022-08-04T15:11:31;7.30;;;3.53;;
7460;SDS011;6757;52.258;12.840;2022-08-04T15:13:59;4.95;;;3.40;;
7460;SDS011;6757;52.258;12.840;2022-08-04T15:16:28;4.90;;;3.28;;
7460;SDS011;6757;52.258;12.840;2022-08-04T15:18:58;4.03;;;2.72;;
7460;SDS011;6757;52.258;12.840;2022-08-04T15:21:26;3.75;;;3.03;;
7460;SDS011;6757;52.258;12.840;2022-08-04T15:23:54;3.53;;;2.78;;
7460;SDS011;6757;52.258;12.840;2022-08-04T15:26:24;4.65;;;3.50;;
7460;SDS011;6757;52.258;12.840;2022-08-04T15:29:00;4.28;;;2.88;;
7460;SDS011;6757;52.258;12.840;2022-08-04T15:31:35;4.32;;;2.80;;
7460;SDS011;6757;52.258;12.840;2022-08-04T15:34:05;3.25;;;2.95;;
7460;SDS011;6757;52.258;12.840;2022-08-04T15:36:34;5.63;;;3.45;;
7460;SDS011;6757;52.258;12.840;2022-08-04T15:39:17;3.70;;;2.72;;
7460;SDS011;6757;52.258;12.840;2022-08-04T15:41:59;6.10;;;3.22;;
7460;SDS011;6757;52.258;12.840;2022-08-04T15:44:58;5.55;;;3.22;;
7460;SDS011;6757;52.258;12.840;2022-08-04T15:51:04;6.22;;;3.38;;
7460;SDS011;6757;52.258;12.840;2022-08-04T15:56:47;4.35;;;3.05;;
7460;SDS011;6757;52.258;12.840;2022-08-04T15:59:15;3.28;;;2.75;;
7460;SDS011;6757;52.258;12.840;2022-08-04T16:02:27;7.70;;;3.63;;
7460;SDS011;6757;52.258;12.840;2022-08-04T16:08:07;5.30;;;3.42;;
7460;SDS011;6757;52.258;12.840;2022-08-04T16:10:38;4.85;;;2.88;;
7460;SDS011;6757;52.258;12.840;2022-08-04T16:13:09;5.22;;;3.30;;
7460;SDS011;6757;52.258;12.840;2022-08-04T16:15:40;4.05;;;3.00;;
7460;SDS011;6757;52.258;12.840;2022-08-04T16:18:11;4.53;;;3.42;;
7460;SDS011;6757;52.258;12.840;2022-08-04T16:21:02;3.92;;;3.20;;
7460;SDS011;6757;52.258;12.840;2022-08-04T16:23:39;4.35;;;3.17;;
7460;SDS011;6757;52.258;12.840;2022-08-04T16:26:40;5.50;;;3.30;;
7460;SDS011;6757;52.258;12.840;2022-08-04T16:29:26;4.95;;;3.22;;
7460;SDS011;6757;52.258;12.840;2022-08-04T16:32:09;4.63;;;3.08;;
7460;SDS011;6757;52.258;12.840;2022-08-04T16:34:50;2.80;;;2.53;;
7460;SDS011;6757;52.258;12.840;2022-08-04T16:37:20;3.25;;;2.75;;
7460;SDS011;6757;52.258;12.840;2022-08-04T16:39:50;3.80;;;2.78;;
7460;SDS011;6757;52.258;12.840;2022-08-04T16:42:59;4.82;;;2.47;;
7460;SDS011;6757;52.258;12.840;2022-08-04T16:45:42;3.90;;;2.55;;
7460;SDS011;6757;52.258;12.840;2022-08-04T16:48:17;3.22;;;2.50;;
7460;SDS011;6757;52.258;12.840;2022-08-04T16:50:49;4.60;;;3.15;;
7460;SDS011;6757;52.258;12.840;2022-08-04T16:53:21;4.38;;;2.88;;
7460;SDS011;6757;52.258;12.840;2022-08-04T16:55:51;4.72;;;2.78;;
7460;SDS011;6757;52.258;12.840;2022-08-04T16:58:24;4.90;;;2.90;;
7460;SDS011;6757;52.258;12.840;2022-08-04T17:00:54;3.05;;;2.60;;